sensor_id;sensor_type;location;lat;lon;timestamp;P1;durP1;ratioP1;P2;durP2;ratioP2
67902;SDS011;54708;43.612;1.568;2023-07-13T00:01:11;3.85;;;2.53;;
67902;SDS011;54708;43.612;1.568;2023-07-13T00:03:37;2.97;;;2.25;;
67902;SDS011;54708;43.612;1.568;2023-07-13T00:06:06;4.30;;;2.03;;
67902;SDS011;54708;43.612;1.568;2023-07-13T00:08:31;3.08;;;2.40;;
67902;SDS011;54708;43.612;1.568;2023-07-13T00:10:58;5.30;;;2.58;;
67902;SDS011;54708;43.612;1.568;2023-07-13T00:13:23;3.97;;;3.03;;
67902;SDS011;54708;43.612;1.568;2023-07-13T00:15:49;4.15;;;2.63;;
67902;SDS011;54708;43.612;1.568;2023-07-13T00:18:14;5.63;;;2.40;;
67902;SDS011;54708;43.612;1.568;2023-07-13T00:20:40;3.28;;;2.15;;
67902;SDS011;54708;43.612;1.568;2023-07-13T00:23:06;2.55;;;2.03;;
67902;SDS011;54708;43.612;1.568;2023-07-13T00:25:32;3.38;;;2.40;;
67902;SDS011;54708;43.612;1.568;2023-07-13T00:27:57;2.85;;;2.35;;
67902;SDS011;54708;43.612;1.568;2023-07-13T00:30:23;3.65;;;2.20;;
67902;SDS011;54708;43.612;1.568;2023-07-13T00:32:49;4.55;;;2.60;;
67902;SDS011;54708;43.612;1.568;2023-07-13T00:35:14;2.70;;;2.17;;
67902;SDS011;54708;43.612;1.568;2023-07-13T00:37:40;3.03;;;2.20;;
67902;SDS011;54708;43.612;1.568;2023-07-13T00:40:05;5.10;;;2.58;;
67902;SDS011;54708;43.612;1.568;2023-07-13T00:42:31;6.43;;;2.65;;
67902;SDS011;54708;43.612;1.568;2023-07-13T00:47:41;2.63;;;2.25;;
67902;SDS011;54708;43.612;1.568;2023-07-13T00:50:08;2.58;;;1.95;;
67902;SDS011;54708;43.612;1.568;2023-07-13T00:52:36;3.67;;;2.33;;
67902;SDS011;54708;43.612;1.568;2023-07-13T00:55:04;3.25;;;2.17;;
67902;SDS011;54708;43.612;1.568;2023-07-13T00:57:30;4.30;;;2.00;;
67902;SDS011;54708;43.612;1.568;2023-07-13T00:59:57;4.20;;;1.88;;
67902;SDS011;54708;43.612;1.568;2023-07-13T01:02:24;6.75;;;2.70;;
67902;SDS011;54708;43.612;1.568;2023-07-13T01:04:50;4.63;;;2.40;;
67902;SDS011;54708;43.612;1.568;2023-07-13T01:07:16;1.75;;;1.52;;
67902;SDS011;54708;43.612;1.568;2023-07-13T01:09:41;4.45;;;2.50;;
67902;SDS011;54708;43.612;1.568;2023-07-13T01:12:07;6.13;;;2.15;;
67902;SDS011;54708;43.612;1.568;2023-07-13T01:14:33;2.30;;;1.80;;
67902;SDS011;54708;43.612;1.568;2023-07-13T01:16:58;5.07;;;1.85;;
67902;SDS011;54708;43.612;1.568;2023-07-13T01:22:10;2.88;;;1.60;;
67902;SDS011;54708;43.612;1.568;2023-07-13T01:24:38;3.58;;;2.10;;
67902;SDS011;54708;43.612;1.568;2023-07-13T01:27:05;2.72;;;2.35;;
67902;SDS011;54708;43.612;1.568;2023-07-13T01:29:32;3.60;;;1.75;;
67902;SDS011;54708;43.612;1.568;2023-07-13T01:31:59;2.03;;;1.85;;
67902;SDS011;54708;43.612;1.568;2023-07-13T01:34:25;3.33;;;2.08;;
67902;SDS011;54708;43.612;1.568;2023-07-13T01:36:51;8.10;;;2.30;;
67902;SDS011;54708;43.612;1.568;2023-07-13T01:39:18;5.93;;;2.40;;
67902;SDS011;54708;43.612;1.568;2023-07-13T01:41:45;3.08;;;2.15;;
67902;SDS011;54708;43.612;1.568;2023-07-13T01:44:10;4.60;;;1.85;;
67902;SDS011;54708;43.612;1.568;2023-07-13T01:46:36;3.63;;;2.42;;
67902;SDS011;54708;43.612;1.568;2023-07-13T01:49:01;3.45;;;2.38;;
67902;SDS011;54708;43.612;1.568;2023-07-13T01:51:27;2.97;;;2.42;;
67902;SDS011;54708;43.612;1.568;2023-07-13T01:53:52;1.70;;;1.58;;
67902;SDS011;54708;43.612;1.568;2023-07-13T01:56:18;8.02;;;2.65;;
67902;SDS011;54708;43.612;1.568;2023-07-13T01:58:44;7.00;;;1.83;;
67902;SDS011;54708;43.612;1.568;2023-07-13T02:01:10;9.02;;;2.53;;
67902;SDS011;54708;43.612;1.568;2023-07-13T02:03:35;3.85;;;1.95;;
67902;SDS011;54708;43.612;1.568;2023-07-13T02:06:01;1.88;;;1.67;;
67902;SDS011;54708;43.612;1.568;2023-07-13T02:08:26;5.35;;;2.28;;
67902;SDS011;54708;43.612;1.568;2023-07-13T02:10:51;2.28;;;2.03;;
67902;SDS011;54708;43.612;1.568;2023-07-13T02:13:17;3.63;;;2.22;;
67902;SDS011;54708;43.612;1.568;2023-07-13T02:15:42;5.82;;;2.20;;
67902;SDS011;54708;43.612;1.568;2023-07-13T02:18:07;4.13;;;2.00;;
67902;SDS011;54708;43.612;1.568;2023-07-13T02:20:33;3.03;;;1.95;;
67902;SDS011;54708;43.612;1.568;2023-07-13T02:22:58;5.07;;;1.95;;
67902;SDS011;54708;43.612;1.568;2023-07-13T02:25:24;2.42;;;2.15;;
67902;SDS011;54708;43.612;1.568;2023-07-13T02:27:51;3.45;;;2.00;;
67902;SDS011;54708;43.612;1.568;2023-07-13T02:30:17;6.38;;;2.40;;
67902;SDS011;54708;43.612;1.568;2023-07-13T02:32:43;3.55;;;2.20;;
67902;SDS011;54708;43.612;1.568;2023-07-13T02:35:09;11.05;;;3.03;;
67902;SDS011;54708;43.612;1.568;2023-07-13T02:37:35;4.05;;;2.15;;
67902;SDS011;54708;43.612;1.568;2023-07-13T02:40:00;5.93;;;2.30;;
67902;SDS011;54708;43.612;1.568;2023-07-13T02:42:25;6.50;;;2.55;;
67902;SDS011;54708;43.612;1.568;2023-07-13T02:44:51;3.17;;;2.33;;
67902;SDS011;54708;43.612;1.568;2023-07-13T02:47:16;3.67;;;2.20;;
67902;SDS011;54708;43.612;1.568;2023-07-13T02:49:41;4.40;;;2.33;;
67902;SDS011;54708;43.612;1.568;2023-07-13T02:52:07;4.35;;;2.60;;
67902;SDS011;54708;43.612;1.568;2023-07-13T02:54:32;5.35;;;2.30;;
67902;SDS011;54708;43.612;1.568;2023-07-13T02:56:58;3.13;;;1.88;;
67902;SDS011;54708;43.612;1.568;2023-07-13T02:59:23;7.43;;;2.78;;
67902;SDS011;54708;43.612;1.568;2023-07-13T03:01:48;4.32;;;2.20;;
67902;SDS011;54708;43.612;1.568;2023-07-13T03:04:14;2.78;;;2.40;;
67902;SDS011;54708;43.612;1.568;2023-07-13T03:06:39;3.08;;;2.53;;
67902;SDS011;54708;43.612;1.568;2023-07-13T03:09:05;8.98;;;2.92;;
67902;SDS011;54708;43.612;1.568;2023-07-13T03:11:30;4.57;;;2.15;;
67902;SDS011;54708;43.612;1.568;2023-07-13T03:13:56;5.35;;;2.10;;
67902;SDS011;54708;43.612;1.568;2023-07-13T03:16:22;4.38;;;2.35;;
67902;SDS011;54708;43.612;1.568;2023-07-13T03:18:48;3.72;;;2.10;;
67902;SDS011;54708;43.612;1.568;2023-07-13T03:21:13;8.57;;;3.05;;
67902;SDS011;54708;43.612;1.568;2023-07-13T03:23:39;4.97;;;2.03;;
67902;SDS011;54708;43.612;1.568;2023-07-13T03:26:06;5.63;;;2.60;;
67902;SDS011;54708;43.612;1.568;2023-07-13T03:28:35;5.30;;;2.25;;
67902;SDS011;54708;43.612;1.568;2023-07-13T03:31:02;4.90;;;1.90;;
67902;SDS011;54708;43.612;1.568;2023-07-13T03:33:30;5.82;;;2.17;;
67902;SDS011;54708;43.612;1.568;2023-07-13T03:35:56;2.05;;;1.70;;
67902;SDS011;54708;43.612;1.568;2023-07-13T03:38:21;6.43;;;2.25;;
67902;SDS011;54708;43.612;1.568;2023-07-13T03:40:47;4.75;;;1.90;;
67902;SDS011;54708;43.612;1.568;2023-07-13T03:43:12;5.45;;;2.00;;
67902;SDS011;54708;43.612;1.568;2023-07-13T03:45:38;4.10;;;2.20;;
67902;SDS011;54708;43.612;1.568;2023-07-13T03:48:03;4.90;;;2.13;;
67902;SDS011;54708;43.612;1.568;2023-07-13T03:50:30;4.70;;;1.98;;
67902;SDS011;54708;43.612;1.568;2023-07-13T03:52:55;6.15;;;2.20;;
67902;SDS011;54708;43.612;1.568;2023-07-13T03:55:21;2.90;;;1.88;;
67902;SDS011;54708;43.612;1.568;2023-07-13T03:57:47;5.30;;;2.50;;
67902;SDS011;54708;43.612;1.568;2023-07-13T04:00:13;3.58;;;2.00;;
67902;SDS011;54708;43.612;1.568;2023-07-13T04:02:38;4.32;;;1.60;;
67902;SDS011;54708;43.612;1.568;2023-07-13T04:05:04;4.90;;;1.65;;
67902;SDS011;54708;43.612;1.568;2023-07-13T04:07:30;6.47;;;2.55;;
67902;SDS011;54708;43.612;1.568;2023-07-13T04:09:55;5.88;;;1.88;;
67902;SDS011;54708;43.612;1.568;2023-07-13T04:12:20;2.78;;;1.63;;
67902;SDS011;54708;43.612;1.568;2023-07-13T04:14:46;8.25;;;2.28;;
67902;SDS011;54708;43.612;1.568;2023-07-13T04:17:11;3.83;;;1.88;;
67902;SDS011;54708;43.612;1.568;2023-07-13T04:19:36;4.35;;;2.00;;
67902;SDS011;54708;43.612;1.568;2023-07-13T04:22:02;4.45;;;2.15;;
67902;SDS011;54708;43.612;1.568;2023-07-13T04:24:27;3.58;;;2.10;;
67902;SDS011;54708;43.612;1.568;2023-07-13T04:26:53;4.00;;;2.08;;
67902;SDS011;54708;43.612;1.568;2023-07-13T04:29:18;14.57;;;3.40;;
67902;SDS011;54708;43.612;1.568;2023-07-13T04:31:43;2.92;;;2.47;;
67902;SDS011;54708;43.612;1.568;2023-07-13T04:34:09;3.38;;;2.05;;
67902;SDS011;54708;43.612;1.568;2023-07-13T04:36:34;5.35;;;2.20;;
67902;SDS011;54708;43.612;1.568;2023-07-13T04:39:02;7.65;;;2.35;;
67902;SDS011;54708;43.612;1.568;2023-07-13T04:41:28;3.63;;;2.00;;
67902;SDS011;54708;43.612;1.568;2023-07-13T04:43:53;3.47;;;2.22;;
67902;SDS011;54708;43.612;1.568;2023-07-13T04:46:18;5.30;;;1.92;;
67902;SDS011;54708;43.612;1.568;2023-07-13T04:48:44;5.05;;;2.22;;
67902;SDS011;54708;43.612;1.568;2023-07-13T04:51:10;2.40;;;2.20;;
67902;SDS011;54708;43.612;1.568;2023-07-13T04:53:36;3.47;;;1.65;;
67902;SDS011;54708;43.612;1.568;2023-07-13T04:56:02;4.72;;;2.15;;
67902;SDS011;54708;43.612;1.568;2023-07-13T04:58:28;4.25;;;2.00;;
67902;SDS011;54708;43.612;1.568;2023-07-13T05:00:59;3.78;;;2.40;;
67902;SDS011;54708;43.612;1.568;2023-07-13T05:03:25;3.33;;;1.73;;
67902;SDS011;54708;43.612;1.568;2023-07-13T05:05:54;3.70;;;2.10;;
67902;SDS011;54708;43.612;1.568;2023-07-13T05:08:21;4.72;;;2.10;;
67902;SDS011;54708;43.612;1.568;2023-07-13T05:10:46;2.92;;;1.90;;
67902;SDS011;54708;43.612;1.568;2023-07-13T05:13:11;4.45;;;1.65;;
67902;SDS011;54708;43.612;1.568;2023-07-13T05:15:37;4.25;;;2.60;;
67902;SDS011;54708;43.612;1.568;2023-07-13T05:18:02;4.30;;;1.65;;
67902;SDS011;54708;43.612;1.568;2023-07-13T05:20:28;7.90;;;2.25;;
67902;SDS011;54708;43.612;1.568;2023-07-13T05:22:53;3.13;;;2.05;;
67902;SDS011;54708;43.612;1.568;2023-07-13T05:25:18;4.55;;;1.92;;
67902;SDS011;54708;43.612;1.568;2023-07-13T05:27:44;5.07;;;2.10;;
67902;SDS011;54708;43.612;1.568;2023-07-13T05:30:10;5.50;;;1.77;;
67902;SDS011;54708;43.612;1.568;2023-07-13T05:32:37;3.13;;;2.17;;
67902;SDS011;54708;43.612;1.568;2023-07-13T05:35:02;5.10;;;1.85;;
67902;SDS011;54708;43.612;1.568;2023-07-13T05:37:28;8.77;;;2.92;;
67902;SDS011;54708;43.612;1.568;2023-07-13T05:39:53;6.80;;;2.25;;
67902;SDS011;54708;43.612;1.568;2023-07-13T05:42:18;7.80;;;1.98;;
67902;SDS011;54708;43.612;1.568;2023-07-13T05:44:44;2.65;;;1.55;;
67902;SDS011;54708;43.612;1.568;2023-07-13T05:47:09;4.55;;;1.80;;
67902;SDS011;54708;43.612;1.568;2023-07-13T05:49:35;7.63;;;2.10;;
67902;SDS011;54708;43.612;1.568;2023-07-13T05:52:00;4.85;;;1.63;;
67902;SDS011;54708;43.612;1.568;2023-07-13T05:54:26;2.33;;;1.65;;
67902;SDS011;54708;43.612;1.568;2023-07-13T05:56:51;3.50;;;1.45;;
67902;SDS011;54708;43.612;1.568;2023-07-13T05:59:17;5.68;;;1.70;;
67902;SDS011;54708;43.612;1.568;2023-07-13T06:01:43;3.42;;;1.63;;
67902;SDS011;54708;43.612;1.568;2023-07-13T06:04:08;5.78;;;1.98;;
67902;SDS011;54708;43.612;1.568;2023-07-13T06:06:33;2.88;;;1.70;;
67902;SDS011;54708;43.612;1.568;2023-07-13T06:08:59;5.35;;;1.42;;
67902;SDS011;54708;43.612;1.568;2023-07-13T06:11:25;2.22;;;1.42;;
67902;SDS011;54708;43.612;1.568;2023-07-13T06:13:52;4.63;;;1.40;;
67902;SDS011;54708;43.612;1.568;2023-07-13T06:16:18;4.68;;;1.92;;
67902;SDS011;54708;43.612;1.568;2023-07-13T06:18:43;7.53;;;2.03;;
67902;SDS011;54708;43.612;1.568;2023-07-13T06:21:10;6.57;;;2.30;;
67902;SDS011;54708;43.612;1.568;2023-07-13T06:23:37;2.70;;;1.42;;
67902;SDS011;54708;43.612;1.568;2023-07-13T06:26:03;5.38;;;1.58;;
67902;SDS011;54708;43.612;1.568;2023-07-13T06:28:29;5.13;;;1.40;;
67902;SDS011;54708;43.612;1.568;2023-07-13T06:30:56;2.60;;;1.10;;
67902;SDS011;54708;43.612;1.568;2023-07-13T06:33:21;3.28;;;1.70;;
67902;SDS011;54708;43.612;1.568;2023-07-13T06:35:47;2.15;;;1.40;;
67902;SDS011;54708;43.612;1.568;2023-07-13T06:38:12;5.68;;;1.80;;
67902;SDS011;54708;43.612;1.568;2023-07-13T06:40:38;4.97;;;1.50;;
67902;SDS011;54708;43.612;1.568;2023-07-13T06:43:03;3.35;;;2.03;;
67902;SDS011;54708;43.612;1.568;2023-07-13T06:45:28;2.25;;;1.10;;
67902;SDS011;54708;43.612;1.568;2023-07-13T06:47:54;6.50;;;1.80;;
67902;SDS011;54708;43.612;1.568;2023-07-13T06:50:20;6.10;;;1.63;;
67902;SDS011;54708;43.612;1.568;2023-07-13T06:52:45;5.70;;;1.55;;
67902;SDS011;54708;43.612;1.568;2023-07-13T06:55:10;3.63;;;1.10;;
67902;SDS011;54708;43.612;1.568;2023-07-13T06:57:36;4.07;;;1.40;;
67902;SDS011;54708;43.612;1.568;2023-07-13T07:00:01;3.03;;;1.63;;
67902;SDS011;54708;43.612;1.568;2023-07-13T07:02:26;7.10;;;3.15;;
67902;SDS011;54708;43.612;1.568;2023-07-13T07:04:52;3.28;;;1.45;;
67902;SDS011;54708;43.612;1.568;2023-07-13T07:07:19;8.55;;;1.55;;
67902;SDS011;54708;43.612;1.568;2023-07-13T07:09:44;5.97;;;1.80;;
67902;SDS011;54708;43.612;1.568;2023-07-13T07:12:10;5.93;;;1.60;;
67902;SDS011;54708;43.612;1.568;2023-07-13T07:14:35;4.35;;;1.38;;
67902;SDS011;54708;43.612;1.568;2023-07-13T07:17:00;5.03;;;1.30;;
67902;SDS011;54708;43.612;1.568;2023-07-13T07:19:27;3.55;;;1.42;;
67902;SDS011;54708;43.612;1.568;2023-07-13T07:21:54;4.07;;;1.30;;
67902;SDS011;54708;43.612;1.568;2023-07-13T07:24:19;5.55;;;1.70;;
67902;SDS011;54708;43.612;1.568;2023-07-13T07:26:44;3.92;;;1.48;;
67902;SDS011;54708;43.612;1.568;2023-07-13T07:29:10;3.25;;;1.40;;
67902;SDS011;54708;43.612;1.568;2023-07-13T07:31:35;3.40;;;1.08;;
67902;SDS011;54708;43.612;1.568;2023-07-13T07:34:02;3.17;;;1.48;;
67902;SDS011;54708;43.612;1.568;2023-07-13T07:36:27;4.40;;;1.60;;
67902;SDS011;54708;43.612;1.568;2023-07-13T07:38:53;7.40;;;1.98;;
67902;SDS011;54708;43.612;1.568;2023-07-13T07:41:18;4.28;;;1.33;;
67902;SDS011;54708;43.612;1.568;2023-07-13T07:43:44;7.00;;;1.58;;
67902;SDS011;54708;43.612;1.568;2023-07-13T07:46:09;4.63;;;1.77;;
67902;SDS011;54708;43.612;1.568;2023-07-13T07:48:35;3.17;;;1.50;;
67902;SDS011;54708;43.612;1.568;2023-07-13T07:51:00;7.25;;;2.03;;
67902;SDS011;54708;43.612;1.568;2023-07-13T07:53:25;1.65;;;1.20;;
67902;SDS011;54708;43.612;1.568;2023-07-13T07:55:51;4.93;;;1.90;;
67902;SDS011;54708;43.612;1.568;2023-07-13T07:58:16;1.52;;;0.98;;
67902;SDS011;54708;43.612;1.568;2023-07-13T08:00:42;2.05;;;1.25;;
67902;SDS011;54708;43.612;1.568;2023-07-13T08:03:07;4.20;;;1.40;;
67902;SDS011;54708;43.612;1.568;2023-07-13T08:05:34;4.82;;;1.58;;
67902;SDS011;54708;43.612;1.568;2023-07-13T08:08:01;4.75;;;1.23;;
67902;SDS011;54708;43.612;1.568;2023-07-13T08:10:26;4.18;;;1.85;;
67902;SDS011;54708;43.612;1.568;2023-07-13T08:12:51;5.25;;;1.33;;
67902;SDS011;54708;43.612;1.568;2023-07-13T08:15:17;5.15;;;1.90;;
67902;SDS011;54708;43.612;1.568;2023-07-13T08:17:43;5.32;;;1.40;;
67902;SDS011;54708;43.612;1.568;2023-07-13T08:20:08;3.88;;;1.35;;
67902;SDS011;54708;43.612;1.568;2023-07-13T08:22:34;6.60;;;2.42;;
67902;SDS011;54708;43.612;1.568;2023-07-13T08:25:00;6.78;;;1.10;;
67902;SDS011;54708;43.612;1.568;2023-07-13T08:27:26;3.72;;;0.95;;
67902;SDS011;54708;43.612;1.568;2023-07-13T08:29:52;3.03;;;1.02;;
67902;SDS011;54708;43.612;1.568;2023-07-13T08:32:19;5.32;;;1.35;;
67902;SDS011;54708;43.612;1.568;2023-07-13T08:34:45;5.80;;;1.35;;
67902;SDS011;54708;43.612;1.568;2023-07-13T08:37:10;4.43;;;1.13;;
67902;SDS011;54708;43.612;1.568;2023-07-13T08:39:36;4.28;;;1.10;;
67902;SDS011;54708;43.612;1.568;2023-07-13T08:42:05;2.53;;;1.08;;
67902;SDS011;54708;43.612;1.568;2023-07-13T08:45:19;2.38;;;0.98;;
67902;SDS011;54708;43.612;1.568;2023-07-13T08:47:34;6.95;;;1.30;;
67902;SDS011;54708;43.612;1.568;2023-07-13T08:50:01;1.63;;;1.35;;
67902;SDS011;54708;43.612;1.568;2023-07-13T08:54:55;6.07;;;1.17;;
67902;SDS011;54708;43.612;1.568;2023-07-13T08:57:24;8.77;;;1.20;;
67902;SDS011;54708;43.612;1.568;2023-07-13T08:59:56;1.85;;;1.00;;
67902;SDS011;54708;43.612;1.568;2023-07-13T09:07:29;4.75;;;1.58;;
67902;SDS011;54708;43.612;1.568;2023-07-13T09:10:03;4.82;;;0.85;;
67902;SDS011;54708;43.612;1.568;2023-07-13T09:15:21;3.00;;;1.25;;
67902;SDS011;54708;43.612;1.568;2023-07-13T09:17:50;4.72;;;0.90;;
67902;SDS011;54708;43.612;1.568;2023-07-13T09:20:19;1.90;;;0.80;;
67902;SDS011;54708;43.612;1.568;2023-07-13T09:23:01;2.45;;;1.13;;
67902;SDS011;54708;43.612;1.568;2023-07-13T09:25:32;3.72;;;1.67;;
67902;SDS011;54708;43.612;1.568;2023-07-13T09:28:19;1.42;;;1.13;;
67902;SDS011;54708;43.612;1.568;2023-07-13T09:30:52;8.95;;;1.23;;
67902;SDS011;54708;43.612;1.568;2023-07-13T09:33:21;4.00;;;1.10;;
67902;SDS011;54708;43.612;1.568;2023-07-13T09:35:48;2.72;;;1.10;;
67902;SDS011;54708;43.612;1.568;2023-07-13T09:38:15;3.65;;;0.90;;
67902;SDS011;54708;43.612;1.568;2023-07-13T09:46:34;4.80;;;1.98;;
67902;SDS011;54708;43.612;1.568;2023-07-13T09:49:00;2.03;;;1.00;;
67902;SDS011;54708;43.612;1.568;2023-07-13T09:51:25;5.72;;;1.40;;
67902;SDS011;54708;43.612;1.568;2023-07-13T09:53:51;2.33;;;1.10;;
67902;SDS011;54708;43.612;1.568;2023-07-13T09:56:20;1.55;;;1.02;;
67902;SDS011;54708;43.612;1.568;2023-07-13T09:58:47;1.98;;;1.33;;
67902;SDS011;54708;43.612;1.568;2023-07-13T10:01:12;6.15;;;3.00;;
67902;SDS011;54708;43.612;1.568;2023-07-13T10:03:39;9.70;;;2.00;;
67902;SDS011;54708;43.612;1.568;2023-07-13T10:06:11;7.30;;;1.70;;
67902;SDS011;54708;43.612;1.568;2023-07-13T10:08:38;2.65;;;0.80;;
67902;SDS011;54708;43.612;1.568;2023-07-13T10:13:43;3.30;;;1.15;;
67902;SDS011;54708;43.612;1.568;2023-07-13T10:16:10;3.72;;;1.33;;
67902;SDS011;54708;43.612;1.568;2023-07-13T10:18:39;5.82;;;1.38;;
67902;SDS011;54708;43.612;1.568;2023-07-13T10:21:12;1.02;;;0.88;;
67902;SDS011;54708;43.612;1.568;2023-07-13T10:23:40;3.10;;;1.30;;
67902;SDS011;54708;43.612;1.568;2023-07-13T10:26:12;2.65;;;1.20;;
67902;SDS011;54708;43.612;1.568;2023-07-13T10:28:41;6.32;;;2.15;;
67902;SDS011;54708;43.612;1.568;2023-07-13T10:31:10;2.33;;;1.17;;
67902;SDS011;54708;43.612;1.568;2023-07-13T10:33:37;2.17;;;1.13;;
67902;SDS011;54708;43.612;1.568;2023-07-13T10:38:37;6.22;;;1.30;;
67902;SDS011;54708;43.612;1.568;2023-07-13T10:41:03;3.47;;;1.20;;
67902;SDS011;54708;43.612;1.568;2023-07-13T10:46:06;1.85;;;1.25;;
67902;SDS011;54708;43.612;1.568;2023-07-13T10:48:33;2.30;;;1.08;;
67902;SDS011;54708;43.612;1.568;2023-07-13T10:50:59;4.78;;;1.27;;
67902;SDS011;54708;43.612;1.568;2023-07-13T10:53:30;6.88;;;1.65;;
67902;SDS011;54708;43.612;1.568;2023-07-13T10:56:01;5.18;;;2.10;;
67902;SDS011;54708;43.612;1.568;2023-07-13T10:58:37;2.83;;;1.42;;
67902;SDS011;54708;43.612;1.568;2023-07-13T11:03:32;1.73;;;1.27;;
67902;SDS011;54708;43.612;1.568;2023-07-13T11:06:43;1.98;;;0.98;;
67902;SDS011;54708;43.612;1.568;2023-07-13T11:09:43;2.47;;;1.00;;
67902;SDS011;54708;43.612;1.568;2023-07-13T11:11:46;3.75;;;1.45;;
67902;SDS011;54708;43.612;1.568;2023-07-13T11:14:35;2.83;;;1.00;;
67902;SDS011;54708;43.612;1.568;2023-07-13T11:22:44;16.73;;;3.00;;
67902;SDS011;54708;43.612;1.568;2023-07-13T11:25:36;5.65;;;1.23;;
67902;SDS011;54708;43.612;1.568;2023-07-13T11:33:24;1.85;;;0.93;;
67902;SDS011;54708;43.612;1.568;2023-07-13T11:36:00;3.08;;;1.65;;
67902;SDS011;54708;43.612;1.568;2023-07-13T11:40:58;2.13;;;0.93;;
67902;SDS011;54708;43.612;1.568;2023-07-13T11:43:28;1.90;;;1.10;;
67902;SDS011;54708;43.612;1.568;2023-07-13T11:45:53;3.28;;;1.52;;
67902;SDS011;54708;43.612;1.568;2023-07-13T11:51:09;5.30;;;1.10;;
67902;SDS011;54708;43.612;1.568;2023-07-13T11:53:38;1.38;;;0.77;;
67902;SDS011;54708;43.612;1.568;2023-07-13T11:56:09;1.90;;;1.02;;
67902;SDS011;54708;43.612;1.568;2023-07-13T11:58:34;5.55;;;1.70;;
67902;SDS011;54708;43.612;1.568;2023-07-13T12:01:00;1.13;;;1.02;;
67902;SDS011;54708;43.612;1.568;2023-07-13T12:03:29;3.50;;;1.23;;
67902;SDS011;54708;43.612;1.568;2023-07-13T12:05:56;2.17;;;1.38;;
67902;SDS011;54708;43.612;1.568;2023-07-13T12:08:26;4.22;;;1.05;;
67902;SDS011;54708;43.612;1.568;2023-07-13T12:11:14;1.50;;;1.10;;
67902;SDS011;54708;43.612;1.568;2023-07-13T12:13:43;2.15;;;1.17;;
67902;SDS011;54708;43.612;1.568;2023-07-13T12:16:16;1.73;;;1.10;;
67902;SDS011;54708;43.612;1.568;2023-07-13T12:18:47;1.80;;;1.30;;
67902;SDS011;54708;43.612;1.568;2023-07-13T12:21:14;3.58;;;1.45;;
67902;SDS011;54708;43.612;1.568;2023-07-13T12:23:43;2.95;;;1.10;;
67902;SDS011;54708;43.612;1.568;2023-07-13T12:26:09;4.03;;;1.50;;
67902;SDS011;54708;43.612;1.568;2023-07-13T12:28:37;1.95;;;1.48;;
67902;SDS011;54708;43.612;1.568;2023-07-13T12:33:59;5.10;;;1.60;;
67902;SDS011;54708;43.612;1.568;2023-07-13T12:36:26;4.70;;;1.10;;
67902;SDS011;54708;43.612;1.568;2023-07-13T12:38:54;3.90;;;1.10;;
67902;SDS011;54708;43.612;1.568;2023-07-13T12:41:19;5.05;;;2.47;;
67902;SDS011;54708;43.612;1.568;2023-07-13T12:43:45;2.92;;;1.42;;
67902;SDS011;54708;43.612;1.568;2023-07-13T12:46:16;3.78;;;1.40;;
67902;SDS011;54708;43.612;1.568;2023-07-13T12:48:50;2.40;;;1.15;;
67902;SDS011;54708;43.612;1.568;2023-07-13T12:53:50;6.50;;;1.17;;
67902;SDS011;54708;43.612;1.568;2023-07-13T12:56:22;1.98;;;1.00;;
67902;SDS011;54708;43.612;1.568;2023-07-13T12:58:50;4.18;;;1.27;;
67902;SDS011;54708;43.612;1.568;2023-07-13T13:01:20;2.67;;;0.90;;
67902;SDS011;54708;43.612;1.568;2023-07-13T13:03:48;4.43;;;1.27;;
67902;SDS011;54708;43.612;1.568;2023-07-13T13:08:45;2.40;;;0.90;;
67902;SDS011;54708;43.612;1.568;2023-07-13T13:11:11;2.67;;;0.98;;
67902;SDS011;54708;43.612;1.568;2023-07-13T13:13:36;1.27;;;0.80;;
67902;SDS011;54708;43.612;1.568;2023-07-13T13:16:04;4.65;;;1.63;;
67902;SDS011;54708;43.612;1.568;2023-07-13T13:18:50;3.47;;;1.15;;
67902;SDS011;54708;43.612;1.568;2023-07-13T13:21:17;1.58;;;1.02;;
67902;SDS011;54708;43.612;1.568;2023-07-13T13:23:43;3.00;;;1.90;;
67902;SDS011;54708;43.612;1.568;2023-07-13T13:26:12;6.55;;;1.40;;
67902;SDS011;54708;43.612;1.568;2023-07-13T13:28:38;4.05;;;1.30;;
67902;SDS011;54708;43.612;1.568;2023-07-13T13:31:04;2.60;;;1.20;;
67902;SDS011;54708;43.612;1.568;2023-07-13T13:33:29;4.15;;;0.73;;
67902;SDS011;54708;43.612;1.568;2023-07-13T13:35:55;1.70;;;1.23;;
67902;SDS011;54708;43.612;1.568;2023-07-13T13:38:23;0.93;;;0.80;;
67902;SDS011;54708;43.612;1.568;2023-07-13T13:40:51;1.38;;;0.60;;
67902;SDS011;54708;43.612;1.568;2023-07-13T13:43:25;3.67;;;1.15;;
67902;SDS011;54708;43.612;1.568;2023-07-13T13:45:52;3.53;;;1.10;;
67902;SDS011;54708;43.612;1.568;2023-07-13T13:48:37;2.78;;;1.55;;
67902;SDS011;54708;43.612;1.568;2023-07-13T13:51:06;3.55;;;1.10;;
67902;SDS011;54708;43.612;1.568;2023-07-13T13:53:41;2.60;;;1.08;;
67902;SDS011;54708;43.612;1.568;2023-07-13T13:56:07;2.55;;;1.00;;
67902;SDS011;54708;43.612;1.568;2023-07-13T13:58:33;2.58;;;1.83;;
67902;SDS011;54708;43.612;1.568;2023-07-13T14:00:59;4.55;;;1.10;;
67902;SDS011;54708;43.612;1.568;2023-07-13T14:03:24;0.95;;;0.77;;
67902;SDS011;54708;43.612;1.568;2023-07-13T14:05:50;3.50;;;1.00;;
67902;SDS011;54708;43.612;1.568;2023-07-13T14:08:17;4.85;;;1.27;;
67902;SDS011;54708;43.612;1.568;2023-07-13T14:10:44;4.53;;;0.80;;
67902;SDS011;54708;43.612;1.568;2023-07-13T14:13:18;2.83;;;1.00;;
67902;SDS011;54708;43.612;1.568;2023-07-13T14:15:44;2.60;;;0.88;;
67902;SDS011;54708;43.612;1.568;2023-07-13T14:18:10;2.08;;;1.45;;
67902;SDS011;54708;43.612;1.568;2023-07-13T14:20:37;1.95;;;1.15;;
67902;SDS011;54708;43.612;1.568;2023-07-13T14:23:02;1.98;;;0.80;;
67902;SDS011;54708;43.612;1.568;2023-07-13T14:25:28;3.55;;;0.98;;
67902;SDS011;54708;43.612;1.568;2023-07-13T14:27:55;4.22;;;1.02;;
67902;SDS011;54708;43.612;1.568;2023-07-13T14:30:24;2.42;;;0.93;;
67902;SDS011;54708;43.612;1.568;2023-07-13T14:32:49;6.15;;;1.13;;
67902;SDS011;54708;43.612;1.568;2023-07-13T14:35:15;4.90;;;1.20;;
67902;SDS011;54708;43.612;1.568;2023-07-13T14:37:43;4.10;;;1.10;;
67902;SDS011;54708;43.612;1.568;2023-07-13T14:40:16;1.05;;;0.77;;
67902;SDS011;54708;43.612;1.568;2023-07-13T14:42:44;4.25;;;1.13;;
67902;SDS011;54708;43.612;1.568;2023-07-13T14:45:17;2.28;;;1.10;;
67902;SDS011;54708;43.612;1.568;2023-07-13T14:47:44;3.72;;;1.05;;
67902;SDS011;54708;43.612;1.568;2023-07-13T14:50:16;5.70;;;1.20;;
67902;SDS011;54708;43.612;1.568;2023-07-13T14:52:55;2.80;;;0.90;;
67902;SDS011;54708;43.612;1.568;2023-07-13T14:55:21;1.40;;;0.98;;
67902;SDS011;54708;43.612;1.568;2023-07-13T14:57:46;2.72;;;1.10;;
67902;SDS011;54708;43.612;1.568;2023-07-13T15:00:16;3.28;;;0.93;;
67902;SDS011;54708;43.612;1.568;2023-07-13T15:02:47;3.08;;;1.17;;
67902;SDS011;54708;43.612;1.568;2023-07-13T15:05:14;2.25;;;0.77;;
67902;SDS011;54708;43.612;1.568;2023-07-13T15:07:49;1.77;;;0.85;;
67902;SDS011;54708;43.612;1.568;2023-07-13T15:10:19;1.70;;;0.80;;
67902;SDS011;54708;43.612;1.568;2023-07-13T15:12:47;1.95;;;0.85;;
67902;SDS011;54708;43.612;1.568;2023-07-13T15:15:14;3.88;;;0.77;;
67902;SDS011;54708;43.612;1.568;2023-07-13T15:17:41;2.20;;;1.00;;
67902;SDS011;54708;43.612;1.568;2023-07-13T15:22:40;2.47;;;0.85;;
67902;SDS011;54708;43.612;1.568;2023-07-13T15:25:08;1.90;;;1.30;;
67902;SDS011;54708;43.612;1.568;2023-07-13T15:27:39;3.58;;;0.90;;
67902;SDS011;54708;43.612;1.568;2023-07-13T15:30:04;2.85;;;0.90;;
67902;SDS011;54708;43.612;1.568;2023-07-13T15:32:30;3.13;;;1.30;;
67902;SDS011;54708;43.612;1.568;2023-07-13T15:34:55;2.30;;;1.10;;
67902;SDS011;54708;43.612;1.568;2023-07-13T15:37:21;5.30;;;1.00;;
67902;SDS011;54708;43.612;1.568;2023-07-13T15:39:46;2.85;;;1.25;;
67902;SDS011;54708;43.612;1.568;2023-07-13T15:42:13;3.17;;;1.20;;
67902;SDS011;54708;43.612;1.568;2023-07-13T15:44:40;3.47;;;1.17;;
67902;SDS011;54708;43.612;1.568;2023-07-13T15:47:08;3.20;;;0.90;;